sensor_id;sensor_type;location;lat;lon;timestamp;P1;durP1;ratioP1;P2;durP2;ratioP2
73321;SDS011;61549;37.044;22.128;2022-10-22T00:00:22;11.27;;;7.20;;
73321;SDS011;61549;37.044;22.128;2022-10-22T00:02:49;7.38;;;6.07;;
73321;SDS011;61549;37.044;22.128;2022-10-22T00:05:14;7.30;;;6.32;;
73321;SDS011;61549;37.044;22.128;2022-10-22T00:07:40;7.93;;;6.80;;
73321;SDS011;61549;37.044;22.128;2022-10-22T00:10:06;6.80;;;6.07;;
73321;SDS011;61549;37.044;22.128;2022-10-22T00:12:33;7.80;;;6.22;;
73321;SDS011;61549;37.044;22.128;2022-10-22T00:14:59;8.73;;;6.40;;
73321;SDS011;61549;37.044;22.128;2022-10-22T00:17:25;7.40;;;6.30;;
73321;SDS011;61549;37.044;22.128;2022-10-22T00:19:51;8.55;;;6.35;;
73321;SDS011;61549;37.044;22.128;2022-10-22T00:22:16;7.22;;;6.10;;
73321;SDS011;61549;37.044;22.128;2022-10-22T00:24:42;7.10;;;6.40;;
73321;SDS011;61549;37.044;22.128;2022-10-22T00:27:09;7.20;;;6.30;;
73321;SDS011;61549;37.044;22.128;2022-10-22T00:29:36;7.68;;;6.30;;
73321;SDS011;61549;37.044;22.128;2022-10-22T00:32:03;6.90;;;5.57;;
73321;SDS011;61549;37.044;22.128;2022-10-22T00:34:30;6.30;;;5.57;;
73321;SDS011;61549;37.044;22.128;2022-10-22T00:36:56;6.13;;;5.53;;
73321;SDS011;61549;37.044;22.128;2022-10-22T00:39:22;6.13;;;5.53;;
73321;SDS011;61549;37.044;22.128;2022-10-22T00:41:49;6.28;;;5.28;;
73321;SDS011;61549;37.044;22.128;2022-10-22T00:47:20;6.22;;;5.35;;
73321;SDS011;61549;37.044;22.128;2022-10-22T00:49:48;6.95;;;5.30;;
73321;SDS011;61549;37.044;22.128;2022-10-22T00:52:15;5.80;;;5.20;;
73321;SDS011;61549;37.044;22.128;2022-10-22T00:54:41;7.65;;;5.30;;
73321;SDS011;61549;37.044;22.128;2022-10-22T00:57:08;5.88;;;4.95;;
73321;SDS011;61549;37.044;22.128;2022-10-22T00:59:37;5.40;;;4.90;;
73321;SDS011;61549;37.044;22.128;2022-10-22T01:02:04;6.88;;;5.20;;
73321;SDS011;61549;37.044;22.128;2022-10-22T01:04:30;5.93;;;5.30;;
73321;SDS011;61549;37.044;22.128;2022-10-22T01:06:56;5.45;;;4.75;;
73321;SDS011;61549;37.044;22.128;2022-10-22T01:09:39;5.80;;;5.18;;
73321;SDS011;61549;37.044;22.128;2022-10-22T01:12:22;6.15;;;4.75;;
73321;SDS011;61549;37.044;22.128;2022-10-22T01:15:09;6.72;;;5.47;;
73321;SDS011;61549;37.044;22.128;2022-10-22T01:18:17;6.00;;;5.40;;
73321;SDS011;61549;37.044;22.128;2022-10-22T01:21:00;6.65;;;5.47;;
73321;SDS011;61549;37.044;22.128;2022-10-22T01:26:41;6.80;;;5.68;;
73321;SDS011;61549;37.044;22.128;2022-10-22T01:29:26;8.80;;;6.15;;
73321;SDS011;61549;37.044;22.128;2022-10-22T01:32:01;10.82;;;6.65;;
73321;SDS011;61549;37.044;22.128;2022-10-22T01:34:33;9.18;;;6.15;;
73321;SDS011;61549;37.044;22.128;2022-10-22T01:37:00;6.95;;;5.78;;
73321;SDS011;61549;37.044;22.128;2022-10-22T01:39:28;6.43;;;5.22;;
73321;SDS011;61549;37.044;22.128;2022-10-22T01:41:55;6.57;;;5.40;;
73321;SDS011;61549;37.044;22.128;2022-10-22T01:44:42;5.57;;;4.97;;
73321;SDS011;61549;37.044;22.128;2022-10-22T01:47:14;5.53;;;5.03;;
73321;SDS011;61549;37.044;22.128;2022-10-22T01:55:34;5.45;;;4.90;;
73321;SDS011;61549;37.044;22.128;2022-10-22T02:00:36;8.07;;;5.10;;
73321;SDS011;61549;37.044;22.128;2022-10-22T02:03:05;7.00;;;4.85;;
73321;SDS011;61549;37.044;22.128;2022-10-22T02:05:45;6.43;;;4.68;;
73321;SDS011;61549;37.044;22.128;2022-10-22T02:08:19;6.25;;;4.80;;
73321;SDS011;61549;37.044;22.128;2022-10-22T02:10:52;8.65;;;4.93;;
73321;SDS011;61549;37.044;22.128;2022-10-22T02:13:21;5.70;;;4.90;;
73321;SDS011;61549;37.044;22.128;2022-10-22T02:15:50;6.28;;;5.20;;
73321;SDS011;61549;37.044;22.128;2022-10-22T02:18:21;5.72;;;5.10;;
73321;SDS011;61549;37.044;22.128;2022-10-22T02:20:51;5.35;;;4.70;;
73321;SDS011;61549;37.044;22.128;2022-10-22T02:23:19;5.57;;;4.78;;
73321;SDS011;61549;37.044;22.128;2022-10-22T02:25:46;6.28;;;5.10;;
73321;SDS011;61549;37.044;22.128;2022-10-22T02:28:24;5.65;;;4.75;;
73321;SDS011;61549;37.044;22.128;2022-10-22T02:31:12;5.85;;;4.70;;
73321;SDS011;61549;37.044;22.128;2022-10-22T02:33:48;5.88;;;4.90;;
73321;SDS011;61549;37.044;22.128;2022-10-22T02:36:16;6.85;;;4.93;;
73321;SDS011;61549;37.044;22.128;2022-10-22T02:38:44;4.93;;;4.43;;
73321;SDS011;61549;37.044;22.128;2022-10-22T02:41:13;6.95;;;4.38;;
73321;SDS011;61549;37.044;22.128;2022-10-22T02:43:41;5.20;;;4.70;;
73321;SDS011;61549;37.044;22.128;2022-10-22T02:46:08;5.57;;;4.85;;
73321;SDS011;61549;37.044;22.128;2022-10-22T02:48:35;6.90;;;4.60;;
73321;SDS011;61549;37.044;22.128;2022-10-22T02:51:02;5.35;;;4.85;;
73321;SDS011;61549;37.044;22.128;2022-10-22T02:53:28;5.68;;;4.70;;
73321;SDS011;61549;37.044;22.128;2022-10-22T02:55:54;6.50;;;4.43;;
73321;SDS011;61549;37.044;22.128;2022-10-22T02:58:19;5.43;;;4.68;;
73321;SDS011;61549;37.044;22.128;2022-10-22T03:00:47;5.57;;;4.72;;
73321;SDS011;61549;37.044;22.128;2022-10-22T03:03:14;5.78;;;4.20;;
73321;SDS011;61549;37.044;22.128;2022-10-22T03:05:40;5.43;;;4.45;;
73321;SDS011;61549;37.044;22.128;2022-10-22T03:08:06;5.38;;;4.57;;
73321;SDS011;61549;37.044;22.128;2022-10-22T03:10:32;5.35;;;4.85;;
73321;SDS011;61549;37.044;22.128;2022-10-22T03:12:58;6.47;;;4.50;;
73321;SDS011;61549;37.044;22.128;2022-10-22T03:15:24;4.68;;;4.20;;
73321;SDS011;61549;37.044;22.128;2022-10-22T03:17:50;5.70;;;4.30;;
73321;SDS011;61549;37.044;22.128;2022-10-22T03:20:16;4.88;;;4.25;;
73321;SDS011;61549;37.044;22.128;2022-10-22T03:22:42;4.80;;;4.30;;
73321;SDS011;61549;37.044;22.128;2022-10-22T03:25:10;4.93;;;4.40;;
73321;SDS011;61549;37.044;22.128;2022-10-22T03:27:40;5.22;;;4.72;;
73321;SDS011;61549;37.044;22.128;2022-10-22T03:30:07;6.65;;;4.38;;
73321;SDS011;61549;37.044;22.128;2022-10-22T03:32:34;5.72;;;4.80;;
73321;SDS011;61549;37.044;22.128;2022-10-22T03:35:00;5.57;;;4.72;;
73321;SDS011;61549;37.044;22.128;2022-10-22T03:37:26;5.65;;;4.57;;
73321;SDS011;61549;37.044;22.128;2022-10-22T03:39:52;6.78;;;4.60;;
73321;SDS011;61549;37.044;22.128;2022-10-22T03:42:19;5.85;;;4.68;;
73321;SDS011;61549;37.044;22.128;2022-10-22T03:44:46;6.55;;;4.80;;
73321;SDS011;61549;37.044;22.128;2022-10-22T03:47:12;5.03;;;4.50;;
73321;SDS011;61549;37.044;22.128;2022-10-22T03:49:37;5.65;;;4.43;;
73321;SDS011;61549;37.044;22.128;2022-10-22T03:52:10;5.43;;;4.40;;
73321;SDS011;61549;37.044;22.128;2022-10-22T03:54:38;4.63;;;4.10;;
73321;SDS011;61549;37.044;22.128;2022-10-22T03:57:05;4.85;;;4.15;;
73321;SDS011;61549;37.044;22.128;2022-10-22T03:59:38;6.95;;;4.50;;
73321;SDS011;61549;37.044;22.128;2022-10-22T04:02:07;6.03;;;4.50;;
73321;SDS011;61549;37.044;22.128;2022-10-22T04:04:34;6.47;;;4.57;;
73321;SDS011;61549;37.044;22.128;2022-10-22T04:07:00;4.80;;;4.32;;
73321;SDS011;61549;37.044;22.128;2022-10-22T04:09:26;4.97;;;4.18;;
73321;SDS011;61549;37.044;22.128;2022-10-22T04:11:52;5.00;;;4.50;;
73321;SDS011;61549;37.044;22.128;2022-10-22T04:14:17;4.35;;;3.85;;
73321;SDS011;61549;37.044;22.128;2022-10-22T04:16:43;5.85;;;4.20;;
73321;SDS011;61549;37.044;22.128;2022-10-22T04:19:09;7.20;;;3.92;;
73321;SDS011;61549;37.044;22.128;2022-10-22T04:21:35;5.40;;;3.90;;
73321;SDS011;61549;37.044;22.128;2022-10-22T04:24:01;4.43;;;4.00;;
73321;SDS011;61549;37.044;22.128;2022-10-22T04:26:27;4.10;;;3.70;;
73321;SDS011;61549;37.044;22.128;2022-10-22T04:28:53;4.88;;;4.20;;
73321;SDS011;61549;37.044;22.128;2022-10-22T04:31:19;4.80;;;4.20;;
73321;SDS011;61549;37.044;22.128;2022-10-22T04:33:50;5.72;;;3.85;;
73321;SDS011;61549;37.044;22.128;2022-10-22T04:36:18;5.50;;;4.00;;
73321;SDS011;61549;37.044;22.128;2022-10-22T04:38:46;5.53;;;3.70;;
73321;SDS011;61549;37.044;22.128;2022-10-22T04:41:17;5.70;;;3.90;;
73321;SDS011;61549;37.044;22.128;2022-10-22T04:43:44;4.35;;;3.50;;
73321;SDS011;61549;37.044;22.128;2022-10-22T04:46:13;4.88;;;3.60;;
73321;SDS011;61549;37.044;22.128;2022-10-22T04:48:41;4.75;;;3.20;;
73321;SDS011;61549;37.044;22.128;2022-10-22T04:51:08;4.65;;;3.15;;
73321;SDS011;61549;37.044;22.128;2022-10-22T04:53:36;6.47;;;3.90;;
73321;SDS011;61549;37.044;22.128;2022-10-22T04:56:15;6.78;;;3.67;;
73321;SDS011;61549;37.044;22.128;2022-10-22T04:58:53;5.22;;;3.53;;
73321;SDS011;61549;37.044;22.128;2022-10-22T05:01:22;5.28;;;3.70;;
73321;SDS011;61549;37.044;22.128;2022-10-22T05:03:56;3.95;;;3.55;;
73321;SDS011;61549;37.044;22.128;2022-10-22T05:06:24;4.93;;;3.55;;
73321;SDS011;61549;37.044;22.128;2022-10-22T05:08:57;4.80;;;3.50;;
73321;SDS011;61549;37.044;22.128;2022-10-22T05:11:26;4.55;;;3.58;;
73321;SDS011;61549;37.044;22.128;2022-10-22T05:13:55;4.60;;;3.80;;
73321;SDS011;61549;37.044;22.128;2022-10-22T05:16:21;8.18;;;3.47;;
73321;SDS011;61549;37.044;22.128;2022-10-22T05:18:47;4.13;;;3.67;;
73321;SDS011;61549;37.044;22.128;2022-10-22T05:21:15;5.97;;;3.38;;
73321;SDS011;61549;37.044;22.128;2022-10-22T05:23:42;6.15;;;3.50;;
73321;SDS011;61549;37.044;22.128;2022-10-22T05:26:10;4.97;;;3.30;;
73321;SDS011;61549;37.044;22.128;2022-10-22T05:28:38;5.15;;;3.50;;
73321;SDS011;61549;37.044;22.128;2022-10-22T05:31:04;4.82;;;3.33;;
73321;SDS011;61549;37.044;22.128;2022-10-22T05:33:32;8.20;;;3.30;;
73321;SDS011;61549;37.044;22.128;2022-10-22T05:35:58;5.28;;;3.17;;
73321;SDS011;61549;37.044;22.128;2022-10-22T05:38:25;4.45;;;3.25;;
73321;SDS011;61549;37.044;22.128;2022-10-22T05:43:27;6.38;;;3.42;;
73321;SDS011;61549;37.044;22.128;2022-10-22T05:45:53;4.78;;;3.53;;
73321;SDS011;61549;37.044;22.128;2022-10-22T05:48:19;4.13;;;3.38;;
73321;SDS011;61549;37.044;22.128;2022-10-22T05:50:45;5.53;;;3.83;;
73321;SDS011;61549;37.044;22.128;2022-10-22T05:53:15;5.35;;;4.15;;
73321;SDS011;61549;37.044;22.128;2022-10-22T05:55:44;5.07;;;4.13;;
73321;SDS011;61549;37.044;22.128;2022-10-22T05:58:13;5.25;;;4.35;;
73321;SDS011;61549;37.044;22.128;2022-10-22T06:00:39;10.70;;;4.53;;
73321;SDS011;61549;37.044;22.128;2022-10-22T06:03:06;5.85;;;4.05;;
73321;SDS011;61549;37.044;22.128;2022-10-22T06:05:35;4.60;;;3.80;;
73321;SDS011;61549;37.044;22.128;2022-10-22T06:08:02;5.25;;;3.72;;
73321;SDS011;61549;37.044;22.128;2022-10-22T06:10:28;4.68;;;3.42;;
73321;SDS011;61549;37.044;22.128;2022-10-22T06:12:54;4.38;;;3.25;;
73321;SDS011;61549;37.044;22.128;2022-10-22T06:15:20;5.60;;;3.30;;
73321;SDS011;61549;37.044;22.128;2022-10-22T06:17:46;6.72;;;3.42;;
73321;SDS011;61549;37.044;22.128;2022-10-22T06:20:12;4.90;;;3.70;;
73321;SDS011;61549;37.044;22.128;2022-10-22T06:22:39;5.15;;;3.75;;
73321;SDS011;61549;37.044;22.128;2022-10-22T06:25:05;4.70;;;3.50;;
73321;SDS011;61549;37.044;22.128;2022-10-22T06:27:32;4.43;;;3.72;;
73321;SDS011;61549;37.044;22.128;2022-10-22T06:29:59;5.63;;;3.40;;
73321;SDS011;61549;37.044;22.128;2022-10-22T06:32:25;3.22;;;2.92;;
73321;SDS011;61549;37.044;22.128;2022-10-22T06:34:51;8.10;;;3.33;;
73321;SDS011;61549;37.044;22.128;2022-10-22T06:37:17;3.90;;;3.50;;
73321;SDS011;61549;37.044;22.128;2022-10-22T06:39:43;5.10;;;3.55;;
73321;SDS011;61549;37.044;22.128;2022-10-22T06:42:08;6.45;;;3.90;;
73321;SDS011;61549;37.044;22.128;2022-10-22T06:44:34;5.18;;;3.70;;
73321;SDS011;61549;37.044;22.128;2022-10-22T06:47:00;4.85;;;3.80;;
73321;SDS011;61549;37.044;22.128;2022-10-22T06:49:26;4.72;;;3.63;;
73321;SDS011;61549;37.044;22.128;2022-10-22T06:51:53;6.03;;;3.60;;
73321;SDS011;61549;37.044;22.128;2022-10-22T06:54:19;6.03;;;3.53;;
73321;SDS011;61549;37.044;22.128;2022-10-22T06:56:46;6.45;;;3.50;;
73321;SDS011;61549;37.044;22.128;2022-10-22T06:59:12;4.70;;;3.63;;
73321;SDS011;61549;37.044;22.128;2022-10-22T07:01:38;5.78;;;3.90;;
73321;SDS011;61549;37.044;22.128;2022-10-22T07:04:04;4.43;;;4.03;;
73321;SDS011;61549;37.044;22.128;2022-10-22T07:06:30;5.55;;;3.90;;
73321;SDS011;61549;37.044;22.128;2022-10-22T07:08:57;5.78;;;3.90;;
73321;SDS011;61549;37.044;22.128;2022-10-22T07:11:28;4.90;;;3.80;;
73321;SDS011;61549;37.044;22.128;2022-10-22T07:14:01;4.40;;;3.78;;
73321;SDS011;61549;37.044;22.128;2022-10-22T07:16:27;6.88;;;4.03;;
73321;SDS011;61549;37.044;22.128;2022-10-22T07:18:53;4.20;;;3.75;;
73321;SDS011;61549;37.044;22.128;2022-10-22T07:21:18;5.78;;;4.10;;
73321;SDS011;61549;37.044;22.128;2022-10-22T07:23:46;6.47;;;4.00;;
73321;SDS011;61549;37.044;22.128;2022-10-22T07:26:13;5.18;;;3.70;;
73321;SDS011;61549;37.044;22.128;2022-10-22T07:28:40;5.20;;;4.10;;
73321;SDS011;61549;37.044;22.128;2022-10-22T07:31:07;3.72;;;3.40;;
73321;SDS011;61549;37.044;22.128;2022-10-22T07:33:35;5.30;;;3.80;;
73321;SDS011;61549;37.044;22.128;2022-10-22T07:36:03;4.72;;;4.20;;
73321;SDS011;61549;37.044;22.128;2022-10-22T07:38:30;5.65;;;3.70;;
73321;SDS011;61549;37.044;22.128;2022-10-22T07:40:56;6.82;;;3.95;;
73321;SDS011;61549;37.044;22.128;2022-10-22T07:43:23;7.30;;;4.43;;
73321;SDS011;61549;37.044;22.128;2022-10-22T07:45:51;4.35;;;3.90;;
73321;SDS011;61549;37.044;22.128;2022-10-22T07:48:17;4.50;;;3.60;;
73321;SDS011;61549;37.044;22.128;2022-10-22T07:50:43;6.60;;;3.95;;
73321;SDS011;61549;37.044;22.128;2022-10-22T07:53:08;6.20;;;4.07;;
73321;SDS011;61549;37.044;22.128;2022-10-22T07:55:34;4.78;;;3.58;;
73321;SDS011;61549;37.044;22.128;2022-10-22T07:58:00;4.85;;;4.22;;
73321;SDS011;61549;37.044;22.128;2022-10-22T08:00:26;5.45;;;4.40;;
73321;SDS011;61549;37.044;22.128;2022-10-22T08:02:52;5.10;;;4.28;;
73321;SDS011;61549;37.044;22.128;2022-10-22T08:05:18;5.07;;;4.50;;
73321;SDS011;61549;37.044;22.128;2022-10-22T08:07:45;5.55;;;4.63;;
73321;SDS011;61549;37.044;22.128;2022-10-22T08:10:12;6.82;;;4.95;;
73321;SDS011;61549;37.044;22.128;2022-10-22T08:12:38;7.28;;;4.70;;
73321;SDS011;61549;37.044;22.128;2022-10-22T08:15:05;5.13;;;4.60;;
73321;SDS011;61549;37.044;22.128;2022-10-22T08:17:31;6.45;;;5.68;;
73321;SDS011;61549;37.044;22.128;2022-10-22T08:19:57;6.22;;;5.63;;
73321;SDS011;61549;37.044;22.128;2022-10-22T08:22:23;7.45;;;5.57;;
73321;SDS011;61549;37.044;22.128;2022-10-22T08:24:49;6.25;;;5.30;;
73321;SDS011;61549;37.044;22.128;2022-10-22T08:27:15;5.93;;;5.10;;
73321;SDS011;61549;37.044;22.128;2022-10-22T08:29:41;6.78;;;6.07;;
73321;SDS011;61549;37.044;22.128;2022-10-22T08:32:06;5.60;;;5.10;;
73321;SDS011;61549;37.044;22.128;2022-10-22T08:34:32;5.95;;;5.35;;
73321;SDS011;61549;37.044;22.128;2022-10-22T08:36:58;6.85;;;5.47;;
73321;SDS011;61549;37.044;22.128;2022-10-22T08:39:24;7.45;;;5.75;;
73321;SDS011;61549;37.044;22.128;2022-10-22T08:42:05;8.98;;;5.63;;
73321;SDS011;61549;37.044;22.128;2022-10-22T08:50:25;6.75;;;6.10;;
73321;SDS011;61549;37.044;22.128;2022-10-22T08:53:13;7.03;;;6.32;;
73321;SDS011;61549;37.044;22.128;2022-10-22T08:55:41;6.78;;;5.68;;
73321;SDS011;61549;37.044;22.128;2022-10-22T09:00:53;6.80;;;6.10;;
73321;SDS011;61549;37.044;22.128;2022-10-22T09:06:23;5.90;;;5.30;;
73321;SDS011;61549;37.044;22.128;2022-10-22T09:08:52;5.88;;;5.20;;
73321;SDS011;61549;37.044;22.128;2022-10-22T09:13:59;6.07;;;5.45;;
73321;SDS011;61549;37.044;22.128;2022-10-22T09:19:11;6.22;;;5.63;;
73321;SDS011;61549;37.044;22.128;2022-10-22T09:24:35;6.38;;;5.50;;
73321;SDS011;61549;37.044;22.128;2022-10-22T09:27:16;6.50;;;5.85;;
73321;SDS011;61549;37.044;22.128;2022-10-22T09:29:45;6.30;;;5.70;;
73321;SDS011;61549;37.044;22.128;2022-10-22T09:32:13;6.40;;;5.47;;
73321;SDS011;61549;37.044;22.128;2022-10-22T09:34:39;7.07;;;5.93;;
73321;SDS011;61549;37.044;22.128;2022-10-22T09:37:08;6.53;;;5.50;;
73321;SDS011;61549;37.044;22.128;2022-10-22T09:39:44;6.75;;;5.78;;
73321;SDS011;61549;37.044;22.128;2022-10-22T09:42:14;6.15;;;5.55;;
73321;SDS011;61549;37.044;22.128;2022-10-22T09:44:40;6.65;;;5.88;;
73321;SDS011;61549;37.044;22.128;2022-10-22T09:47:25;6.30;;;5.70;;
73321;SDS011;61549;37.044;22.128;2022-10-22T09:53:03;6.80;;;5.40;;
73321;SDS011;61549;37.044;22.128;2022-10-22T09:55:37;7.38;;;5.38;;
73321;SDS011;61549;37.044;22.128;2022-10-22T09:58:07;7.30;;;5.70;;
73321;SDS011;61549;37.044;22.128;2022-10-22T10:00:38;6.82;;;5.57;;
73321;SDS011;61549;37.044;22.128;2022-10-22T10:03:05;5.70;;;5.20;;
73321;SDS011;61549;37.044;22.128;2022-10-22T10:05:39;5.65;;;5.15;;
73321;SDS011;61549;37.044;22.128;2022-10-22T10:08:12;5.80;;;5.30;;
73321;SDS011;61549;37.044;22.128;2022-10-22T10:10:53;6.70;;;5.35;;
73321;SDS011;61549;37.044;22.128;2022-10-22T10:17:09;5.82;;;5.22;;
73321;SDS011;61549;37.044;22.128;2022-10-22T10:27:29;5.90;;;5.07;;
73321;SDS011;61549;37.044;22.128;2022-10-22T10:30:18;6.13;;;5.05;;
73321;SDS011;61549;37.044;22.128;2022-10-22T10:38:07;5.07;;;4.65;;
73321;SDS011;61549;37.044;22.128;2022-10-22T10:40:43;5.30;;;4.80;;
73321;SDS011;61549;37.044;22.128;2022-10-22T10:43:31;5.20;;;4.70;;
73321;SDS011;61549;37.044;22.128;2022-10-22T10:54:17;5.65;;;4.80;;
73321;SDS011;61549;37.044;22.128;2022-10-22T10:57:02;5.60;;;5.10;;
73321;SDS011;61549;37.044;22.128;2022-10-22T11:05:19;6.97;;;5.30;;
73321;SDS011;61549;37.044;22.128;2022-10-22T11:07:54;8.15;;;5.53;;
73321;SDS011;61549;37.044;22.128;2022-10-22T11:10:29;6.25;;;5.60;;
73321;SDS011;61549;37.044;22.128;2022-10-22T11:13:13;6.90;;;5.20;;
73321;SDS011;61549;37.044;22.128;2022-10-22T11:15:51;6.90;;;5.45;;
73321;SDS011;61549;37.044;22.128;2022-10-22T11:18:48;6.63;;;5.63;;
73321;SDS011;61549;37.044;22.128;2022-10-22T11:24:26;5.53;;;4.95;;
73321;SDS011;61549;37.044;22.128;2022-10-22T11:29:57;5.88;;;5.25;;
73321;SDS011;61549;37.044;22.128;2022-10-22T11:32:30;6.07;;;5.05;;
73321;SDS011;61549;37.044;22.128;2022-10-22T11:34:58;5.43;;;4.93;;
73321;SDS011;61549;37.044;22.128;2022-10-22T11:37:29;6.07;;;5.47;;
73321;SDS011;61549;37.044;22.128;2022-10-22T11:40:06;7.78;;;5.28;;
73321;SDS011;61549;37.044;22.128;2022-10-22T11:42:39;6.15;;;4.93;;
73321;SDS011;61549;37.044;22.128;2022-10-22T11:47:54;4.97;;;4.47;;
73321;SDS011;61549;37.044;22.128;2022-10-22T11:50:24;4.97;;;4.38;;
73321;SDS011;61549;37.044;22.128;2022-10-22T11:58:25;5.72;;;4.65;;
73321;SDS011;61549;37.044;22.128;2022-10-22T12:06:07;4.68;;;4.28;;
73321;SDS011;61549;37.044;22.128;2022-10-22T12:09:06;5.25;;;4.55;;
73321;SDS011;61549;37.044;22.128;2022-10-22T12:11:35;4.93;;;4.25;;
73321;SDS011;61549;37.044;22.128;2022-10-22T12:14:06;4.47;;;4.07;;
73321;SDS011;61549;37.044;22.128;2022-10-22T12:16:50;4.93;;;4.43;;
73321;SDS011;61549;37.044;22.128;2022-10-22T12:19:22;5.72;;;4.38;;
73321;SDS011;61549;37.044;22.128;2022-10-22T12:21:53;6.03;;;4.65;;
73321;SDS011;61549;37.044;22.128;2022-10-22T12:24:23;6.15;;;4.45;;
73321;SDS011;61549;37.044;22.128;2022-10-22T12:26:50;4.13;;;3.72;;
73321;SDS011;61549;37.044;22.128;2022-10-22T12:29:17;4.22;;;3.83;;
73321;SDS011;61549;37.044;22.128;2022-10-22T12:31:45;4.22;;;3.60;;
73321;SDS011;61549;37.044;22.128;2022-10-22T12:34:12;5.22;;;3.97;;
73321;SDS011;61549;37.044;22.128;2022-10-22T12:36:40;3.83;;;3.42;;
73321;SDS011;61549;37.044;22.128;2022-10-22T12:39:18;3.50;;;3.20;;
73321;SDS011;61549;37.044;22.128;2022-10-22T12:41:45;3.33;;;3.03;;
73321;SDS011;61549;37.044;22.128;2022-10-22T12:44:15;4.00;;;2.88;;
73321;SDS011;61549;37.044;22.128;2022-10-22T12:46:42;3.60;;;2.95;;
73321;SDS011;61549;37.044;22.128;2022-10-22T12:49:12;3.67;;;3.38;;
73321;SDS011;61549;37.044;22.128;2022-10-22T12:51:42;4.45;;;3.80;;
73321;SDS011;61549;37.044;22.128;2022-10-22T12:54:12;5.32;;;4.22;;
73321;SDS011;61549;37.044;22.128;2022-10-22T12:56:42;4.30;;;3.90;;
73321;SDS011;61549;37.044;22.128;2022-10-22T13:01:49;5.18;;;4.45;;
73321;SDS011;61549;37.044;22.128;2022-10-22T13:07:37;5.53;;;4.28;;
73321;SDS011;61549;37.044;22.128;2022-10-22T13:09:56;5.90;;;4.53;;
73321;SDS011;61549;37.044;22.128;2022-10-22T13:12:26;6.60;;;4.00;;
73321;SDS011;61549;37.044;22.128;2022-10-22T13:15:16;5.43;;;4.72;;
73321;SDS011;61549;37.044;22.128;2022-10-22T13:20:54;5.28;;;4.85;;
73321;SDS011;61549;37.044;22.128;2022-10-22T13:23:27;6.32;;;4.80;;
73321;SDS011;61549;37.044;22.128;2022-10-22T13:28:34;6.88;;;4.88;;
73321;SDS011;61549;37.044;22.128;2022-10-22T13:31:23;5.43;;;4.60;;
73321;SDS011;61549;37.044;22.128;2022-10-22T13:33:51;7.85;;;4.75;;
73321;SDS011;61549;37.044;22.128;2022-10-22T13:36:20;15.50;;;5.10;;
73321;SDS011;61549;37.044;22.128;2022-10-22T13:38:47;5.43;;;4.70;;
73321;SDS011;61549;37.044;22.128;2022-10-22T13:41:20;7.05;;;5.10;;
73321;SDS011;61549;37.044;22.128;2022-10-22T13:43:57;5.22;;;4.50;;
73321;SDS011;61549;37.044;22.128;2022-10-22T13:46:23;6.40;;;4.72;;
73321;SDS011;61549;37.044;22.128;2022-10-22T13:48:51;5.18;;;4.68;;
73321;SDS011;61549;37.044;22.128;2022-10-22T13:51:20;6.45;;;5.72;;
73321;SDS011;61549;37.044;22.128;2022-10-22T13:53:49;6.05;;;5.45;;
73321;SDS011;61549;37.044;22.128;2022-10-22T13:56:17;8.05;;;5.32;;
73321;SDS011;61549;37.044;22.128;2022-10-22T13:58:44;6.55;;;5.22;;
73321;SDS011;61549;37.044;22.128;2022-10-22T14:01:21;6.05;;;4.88;;
73321;SDS011;61549;37.044;22.128;2022-10-22T14:03:51;6.35;;;5.13;;
73321;SDS011;61549;37.044;22.128;2022-10-22T14:06:20;5.50;;;4.90;;
73321;SDS011;61549;37.044;22.128;2022-10-22T14:08:47;5.38;;;4.88;;
73321;SDS011;61549;37.044;22.128;2022-10-22T14:11:18;5.43;;;4.93;;
73321;SDS011;61549;37.044;22.128;2022-10-22T14:13:44;5.30;;;4.80;;
73321;SDS011;61549;37.044;22.128;2022-10-22T14:16:14;6.03;;;5.07;;
73321;SDS011;61549;37.044;22.128;2022-10-22T14:18:44;4.80;;;4.40;;
73321;SDS011;61549;37.044;22.128;2022-10-22T14:21:11;6.68;;;5.68;;
73321;SDS011;61549;37.044;22.128;2022-10-22T14:23:39;6.40;;;5.40;;
73321;SDS011;61549;37.044;22.128;2022-10-22T14:26:06;6.65;;;5.20;;
73321;SDS011;61549;37.044;22.128;2022-10-22T14:28:33;7.13;;;5.65;;
73321;SDS011;61549;37.044;22.128;2022-10-22T14:30:59;8.73;;;6.07;;
73321;SDS011;61549;37.044;22.128;2022-10-22T14:33:29;8.70;;;6.20;;
73321;SDS011;61549;37.044;22.128;2022-10-22T14:35:58;6.35;;;5.20;;
73321;SDS011;61549;37.044;22.128;2022-10-22T14:38:25;5.70;;;5.10;;
73321;SDS011;61549;37.044;22.128;2022-10-22T14:40:51;7.53;;;4.82;;
73321;SDS011;61549;37.044;22.128;2022-10-22T14:43:21;7.22;;;5.10;;
73321;SDS011;61549;37.044;22.128;2022-10-22T14:45:49;7.05;;;6.35;;
73321;SDS011;61549;37.044;22.128;2022-10-22T14:48:15;7.55;;;5.35;;
73321;SDS011;61549;37.044;22.128;2022-10-22T14:50:42;5.97;;;5.38;;
73321;SDS011;61549;37.044;22.128;2022-10-22T14:53:09;6.90;;;5.45;;
73321;SDS011;61549;37.044;22.128;2022-10-22T14:55:37;6.93;;;6.22;;
73321;SDS011;61549;37.044;22.128;2022-10-22T14:58:04;7.07;;;5.90;;
73321;SDS011;61549;37.044;22.128;2022-10-22T15:00:31;8.57;;;6.32;;
73321;SDS011;61549;37.044;22.128;2022-10-22T15:03:00;7.90;;;5.80;;
73321;SDS011;61549;37.044;22.128;2022-10-22T15:05:27;6.47;;;5.88;;
73321;SDS011;61549;37.044;22.128;2022-10-22T15:07:53;6.35;;;5.75;;
73321;SDS011;61549;37.044;22.128;2022-10-22T15:10:19;7.20;;;6.50;;
73321;SDS011;61549;37.044;22.128;2022-10-22T15:12:45;6.93;;;6.05;;
73321;SDS011;61549;37.044;22.128;2022-10-22T15:15:11;7.53;;;6.65;;
73321;SDS011;61549;37.044;22.128;2022-10-22T15:17:37;7.63;;;6.60;;
73321;SDS011;61549;37.044;22.128;2022-10-22T15:20:04;7.60;;;6.60;;
73321;SDS011;61549;37.044;22.128;2022-10-22T15:22:30;9.82;;;6.25;;
73321;SDS011;61549;37.044;22.128;2022-10-22T15:25:00;7.05;;;6.35;;
73321;SDS011;61549;37.044;22.128;2022-10-22T15:27:31;8.48;;;6.97;;
73321;SDS011;61549;37.044;22.128;2022-10-22T15:29:57;10.20;;;7.07;;
73321;SDS011;61549;37.044;22.128;2022-10-22T15:32:23;10.50;;;7.45;;
73321;SDS011;61549;37.044;22.128;2022-10-22T15:34:51;10.15;;;7.68;;
73321;SDS011;61549;37.044;22.128;2022-10-22T15:37:18;8.50;;;7.63;;
73321;SDS011;61549;37.044;22.128;2022-10-22T15:39:45;10.93;;;7.40;;
73321;SDS011;61549;37.044;22.128;2022-10-22T15:42:11;8.32;;;7.38;;
73321;SDS011;61549;37.044;22.128;2022-10-22T15:44:38;8.90;;;7.65;;
73321;SDS011;61549;37.044;22.128;2022-10-22T15:47:05;10.23;;;8.27;;
73321;SDS011;61549;37.044;22.128;2022-10-22T15:49:32;12.25;;;8.48;;
73321;SDS011;61549;37.044;22.128;2022-10-22T15:52:00;11.15;;;8.68;;
73321;SDS011;61549;37.044;22.128;2022-10-22T15:54:29;9.95;;;8.57;;
73321;SDS011;61549;37.044;22.128;2022-10-22T15:56:56;10.90;;;8.25;;
73321;SDS011;61549;37.044;22.128;2022-10-22T15:59:23;14.00;;;8.45;;
73321;SDS011;61549;37.044;22.128;2022-10-22T16:01:50;17.00;;;8.80;;
73321;SDS011;61549;37.044;22.128;2022-10-22T16:04:16;10.00;;;8.85;;
73321;SDS011;61549;37.044;22.128;2022-10-22T16:06:43;12.27;;;9.15;;
73321;SDS011;61549;37.044;22.128;2022-10-22T16:09:20;10.63;;;8.60;;
73321;SDS011;61549;37.044;22.128;2022-10-22T16:11:48;10.98;;;8.90;;
73321;SDS011;61549;37.044;22.128;2022-10-22T16:14:16;10.52;;;9.43;;
73321;SDS011;61549;37.044;22.128;2022-10-22T16:16:45;14.55;;;9.02;;
73321;SDS011;61549;37.044;22.128;2022-10-22T16:19:13;11.15;;;8.52;;
73321;SDS011;61549;37.044;22.128;2022-10-22T16:21:41;11.15;;;8.27;;
73321;SDS011;61549;37.044;22.128;2022-10-22T16:24:07;8.45;;;7.65;;
73321;SDS011;61549;37.044;22.128;2022-10-22T16:26:34;9.93;;;7.78;;